Time;durP1;ratioP1;P1;durP2;ratioP2;P2;SDS_P1;SDS_P2;PMS_P1;PMS_P2;Temp;Humidity;BMP_temperature;BMP_pressure;BME280_temperature;BME280_humidity;BME280_pressure;Samples;Min_cycle;Max_cycle;Signal;HPM_P1;HPM_P2
2022/05/22 00:01:26;;;;;;;5.90;4.10;;;14.90;99.90;;;;;;4996369;28;20661;-80
2022/05/22 00:03:52;;;;;;;7.07;4.63;;;14.80;99.90;;;;;;5014695;28;20177;-81
2022/05/22 00:06:17;;;;;;;5.73;4.60;;;14.80;99.90;;;;;;5013529;28;20416;-81
2022/05/22 00:08:43;;;;;;;7.40;4.60;;;14.70;99.90;;;;;;4996275;28;20255;-80
2022/05/22 00:11:09;;;;;;;7.07;4.37;;;14.70;99.90;;;;;;4996595;28;20228;-79
2022/05/22 00:13:34;;;;;;;7.80;4.70;;;14.70;99.90;;;;;;5013779;28;20177;-82
2022/05/22 00:18:44;;;;;;;7.17;4.00;;;14.60;99.90;;;;;;5013742;28;20268;-80
2022/05/22 00:21:10;;;;;;;7.60;4.63;;;14.60;99.90;;;;;;4995879;28;20486;-83
2022/05/22 00:23:35;;;;;;;7.97;5.10;;;14.70;99.90;;;;;;5013395;28;20188;-79
2022/05/22 00:26:01;;;;;;;6.20;4.40;;;14.60;99.90;;;;;;4996213;28;20210;-79
2022/05/22 00:28:26;;;;;;;7.33;5.00;;;14.70;99.90;;;;;;5013386;28;20205;-80
2022/05/22 00:30:52;;;;;;;7.70;4.70;;;14.60;99.90;;;;;;4995405;28;20286;-80
2022/05/22 00:33:17;;;;;;;8.13;4.30;;;14.60;99.90;;;;;;5013099;28;20180;-79
2022/05/22 00:35:43;;;;;;;6.17;4.40;;;14.50;99.90;;;;;;5013082;28;20176;-79
2022/05/22 00:38:08;;;;;;;5.87;4.50;;;14.40;99.90;;;;;;5013524;28;20592;-81
2022/05/22 00:40:35;;;;;;;6.43;5.40;;;14.40;99.90;;;;;;5013126;28;21286;-81
2022/05/22 00:43:01;;;;;;;7.40;4.90;;;14.30;99.90;;;;;;4995341;28;20554;-81
2022/05/22 00:45:27;;;;;;;7.70;4.90;;;14.40;99.90;;;;;;5012799;28;20430;-81
2022/05/22 00:47:53;;;;;;;8.13;5.07;;;14.30;99.90;;;;;;5012731;28;20512;-81
2022/05/22 00:50:21;;;;;;;6.70;4.83;;;14.20;99.90;;;;;;5012918;28;20193;-81
2022/05/22 00:52:57;;;;;;;8.43;5.03;;;14.20;99.90;;;;;;5012964;28;20507;-82
2022/05/22 00:55:30;;;;;;;7.33;5.07;;;14.10;99.90;;;;;;4995238;28;20416;-81
2022/05/22 00:57:58;;;;;;;7.40;5.27;;;14.20;99.90;;;;;;4995060;28;20526;-81
2022/05/22 01:00:28;;;;;;;7.73;5.70;;;14.20;99.90;;;;;;5012649;28;20432;-81
2022/05/22 01:05:41;;;;;;;7.67;6.40;;;14.10;99.90;;;;;;5012773;28;20415;-81
2022/05/22 01:08:07;;;;;;;7.03;5.13;;;14.10;99.90;;;;;;4994954;28;20970;-81
2022/05/22 01:10:48;;;;;;;9.40;5.47;;;14.10;99.90;;;;;;5012386;28;20192;-81
2022/05/22 01:13:16;;;;;;;7.60;5.90;;;;;;;;;;5012766;28;20196;-82
2022/05/22 01:15:42;;;;;;;8.27;5.43;;;13.80;99.90;;;;;;5012057;28;20432;-81
2022/05/22 01:18:08;;;;;;;8.13;5.63;;;13.70;99.90;;;;;;4995041;28;20883;-80
2022/05/22 01:20:33;;;;;;;9.10;5.83;;;13.80;99.90;;;;;;5012344;28;20239;-80
2022/05/22 01:22:59;;;;;;;8.53;5.90;;;13.70;99.90;;;;;;4995030;28;20181;-80
2022/05/22 01:25:24;;;;;;;7.87;5.77;;;13.70;99.90;;;;;;5012009;28;20203;-81
2022/05/22 01:27:50;;;;;;;9.10;6.10;;;13.60;99.90;;;;;;5012282;28;20176;-82
2022/05/22 01:30:18;;;;;;;8.27;6.83;;;13.50;99.90;;;;;;5012403;28;20256;-82
2022/05/22 01:32:46;;;;;;;9.37;7.10;;;13.60;99.90;;;;;;4995208;28;20192;-81
2022/05/22 01:35:15;;;;;;;9.63;5.50;;;13.70;99.90;;;;;;4994811;28;20416;-81
2022/05/22 01:37:42;;;;;;;8.53;5.40;;;13.50;99.90;;;;;;5012318;28;20412;-83
2022/05/22 01:40:09;;;;;;;7.07;5.47;;;13.40;99.90;;;;;;4994686;28;20424;-81
2022/05/22 01:42:35;;;;;;;8.17;6.13;;;13.50;99.90;;;;;;5013247;28;20478;-81
2022/05/22 01:45:02;;;;;;;7.40;5.10;;;13.40;99.90;;;;;;4998495;28;20423;-80
2022/05/22 01:47:27;;;;;;;8.50;5.40;;;13.30;99.90;;;;;;4998475;28;20422;-81
2022/05/22 01:49:54;;;;;;;6.97;4.90;;;13.30;99.90;;;;;;5016187;28;20471;-81
2022/05/22 01:52:20;;;;;;;9.70;5.63;;;13.20;99.90;;;;;;4998378;28;20201;-81
2022/05/22 01:54:46;;;;;;;6.87;4.33;;;13.20;99.90;;;;;;5015825;28;20807;-81
2022/05/22 01:57:11;;;;;;;8.53;5.40;;;13.20;99.90;;;;;;5015949;28;20239;-81
2022/05/22 01:59:37;;;;;;;8.33;5.03;;;13.40;99.90;;;;;;5016098;28;20915;-81
2022/05/22 02:02:03;;;;;;;10.90;8.00;;;13.40;99.90;;;;;;4998734;28;20295;-82
2022/05/22 02:04:28;;;;;;;6.87;4.90;;;13.40;99.90;;;;;;5016318;28;20181;-82
2022/05/22 02:09:38;;;;;;;8.63;5.53;;;13.30;99.90;;;;;;5016176;28;20284;-82
2022/05/22 02:12:04;;;;;;;6.10;4.60;;;13.30;99.90;;;;;;4998389;28;20443;-82
2022/05/22 02:14:29;;;;;;;7.40;5.00;;;13.30;99.90;;;;;;4998337;28;20185;-82
2022/05/22 02:16:55;;;;;;;9.80;5.07;;;13.20;99.90;;;;;;4998007;28;20443;-83
2022/05/22 02:19:20;;;;;;;8.07;5.23;;;13.20;99.90;;;;;;4997924;28;20262;-81
2022/05/22 02:21:46;;;;;;;9.93;5.23;;;13.20;99.90;;;;;;5015563;28;20618;-80
2022/05/22 02:24:11;;;;;;;9.53;5.87;;;13.20;99.90;;;;;;4998249;28;20185;-81
2022/05/22 02:26:38;;;;;;;10.23;5.50;;;13.20;99.90;;;;;;4997722;28;20319;-81
2022/05/22 02:29:04;;;;;;;8.43;6.23;;;13.20;99.90;;;;;;4998022;28;20308;-82
2022/05/22 02:31:30;;;;;;;8.17;5.40;;;13.10;99.90;;;;;;5015214;28;21016;-81
2022/05/22 02:33:55;;;;;;;7.83;5.13;;;13.00;99.90;;;;;;4997863;28;20445;-81
2022/05/22 02:36:21;;;;;;;7.37;5.47;;;13.10;99.90;;;;;;4996963;28;20220;-81
2022/05/22 02:38:46;;;;;;;6.57;4.63;;;13.00;99.90;;;;;;4997409;28;20192;-81
2022/05/22 02:41:17;;;;;;;10.00;6.23;;;13.20;99.90;;;;;;4997098;28;20221;-82
2022/05/22 02:43:43;;;;;;;6.50;5.27;;;13.10;99.90;;;;;;4998711;28;20279;-81
2022/05/22 02:46:11;;;;;;;6.40;4.90;;;13.10;99.90;;;;;;5015125;28;20550;-81
2022/05/22 02:48:36;;;;;;;7.60;5.10;;;13.10;99.90;;;;;;4997888;28;20684;-81
2022/05/22 02:51:02;;;;;;;8.07;5.10;;;13.10;99.90;;;;;;4997958;28;20525;-81
2022/05/22 02:53:28;;;;;;;6.20;4.70;;;13.10;99.90;;;;;;5015226;28;20192;-80
2022/05/22 02:55:53;;;;;;;8.50;5.23;;;13.00;99.90;;;;;;5014241;28;20185;-83
2022/05/22 02:58:19;;;;;;;5.90;4.70;;;13.00;99.90;;;;;;4999429;28;20212;-83
2022/05/22 03:00:44;;;;;;;7.40;4.70;;;13.00;99.90;;;;;;5000621;28;20342;-83
2022/05/22 03:03:10;;;;;;;7.20;4.70;;;13.00;99.90;;;;;;5000597;28;20189;-83
2022/05/22 03:08:20;;;;;;;8.80;4.70;;;12.90;99.90;;;;;;5018000;28;20600;-83
2022/05/22 03:10:45;;;;;;;8.30;4.93;;;12.70;99.90;;;;;;5018450;28;20440;-82
2022/05/22 03:13:12;;;;;;;5.40;4.30;;;12.60;99.90;;;;;;5000241;28;20245;-83
2022/05/22 03:15:38;;;;;;;9.33;4.60;;;12.60;99.90;;;;;;4999992;28;20275;-83
2022/05/22 03:18:04;;;;;;;7.87;5.53;;;12.50;99.90;;;;;;4999819;28;20503;-83
2022/05/22 03:20:30;;;;;;;6.83;5.70;;;12.40;99.90;;;;;;5017615;28;20444;-83
2022/05/22 03:22:58;;;;;;;8.63;6.03;;;12.30;99.90;;;;;;5017597;28;20423;-81
2022/05/22 03:25:24;;;;;;;8.93;5.90;;;12.30;99.90;;;;;;5018069;28;20422;-82
2022/05/22 03:27:50;;;;;;;7.73;5.33;;;12.20;99.90;;;;;;4999324;28;20994;-83
2022/05/22 03:30:15;;;;;;;8.63;5.57;;;12.30;99.90;;;;;;5017060;28;20408;-83
2022/05/22 03:32:41;;;;;;;7.77;5.17;;;12.30;99.90;;;;;;4999119;28;20560;-82
2022/05/22 03:35:07;;;;;;;7.57;5.20;;;12.40;99.90;;;;;;5017436;28;20408;-82
2022/05/22 03:37:33;;;;;;;9.17;6.13;;;12.40;99.90;;;;;;4998922;28;20184;-83
2022/05/22 03:39:59;;;;;;;7.57;5.00;;;12.40;99.90;;;;;;5017370;28;20515;-82
2022/05/22 03:42:25;;;;;;;8.00;5.60;;;12.40;99.90;;;;;;5104070;23;20580;-84
2022/05/22 03:44:52;;;;;;;7.20;5.00;;;12.30;99.90;;;;;;5004971;28;20648;-84
2022/05/22 03:47:18;;;;;;;9.23;5.23;;;12.40;99.90;;;;;;5003885;28;20432;-84
2022/05/22 03:49:43;;;;;;;10.57;5.07;;;12.40;99.90;;;;;;5002905;28;20464;-84
2022/05/22 03:52:09;;;;;;;10.10;5.40;;;12.40;99.90;;;;;;5002658;28;20420;-85
2022/05/22 03:54:35;;;;;;;8.30;5.80;;;12.40;99.90;;;;;;5000315;28;20218;-84
2022/05/22 03:57:01;;;;;;;7.90;5.37;;;12.50;99.90;;;;;;4995577;28;20224;-84
2022/05/22 03:59:27;;;;;;;10.70;5.60;;;12.60;99.90;;;;;;4995422;28;20653;-84
2022/05/22 04:01:53;;;;;;;7.00;5.47;;;12.70;99.90;;;;;;4995594;28;20216;-84
2022/05/22 04:04:19;;;;;;;12.70;7.80;;;12.80;99.90;;;;;;4995404;28;20424;-84
2022/05/22 04:06:45;;;;;;;9.50;5.63;;;12.90;99.90;;;;;;4995384;28;20204;-84
2022/05/22 04:09:10;;;;;;;7.10;5.07;;;12.90;99.90;;;;;;4995312;28;20890;-84
2022/05/22 04:11:40;;;;;;;9.00;5.17;;;12.80;99.90;;;;;;4995656;28;20679;-83
2022/05/22 04:14:06;;;;;;;8.30;5.57;;;12.80;99.90;;;;;;4995751;28;20451;-84
2022/05/22 04:16:32;;;;;;;8.63;5.87;;;12.80;99.90;;;;;;4995269;28;20973;-84
2022/05/22 04:18:58;;;;;;;7.93;5.33;;;12.70;99.90;;;;;;4995306;28;20411;-84
2022/05/22 04:21:23;;;;;;;7.17;5.23;;;12.80;99.90;;;;;;4995562;28;20181;-83
2022/05/22 04:26:33;;;;;;;6.30;5.13;;;13.00;99.90;;;;;;5013371;28;20430;-84
2022/05/22 04:28:59;;;;;;;7.30;4.97;;;13.00;99.90;;;;;;4995263;28;21002;-84
2022/05/22 04:31:25;;;;;;;7.33;5.13;;;13.10;99.90;;;;;;4995290;28;20181;-84
2022/05/22 04:33:51;;;;;;;8.50;6.17;;;13.10;99.90;;;;;;4995154;28;20424;-84
2022/05/22 04:36:17;;;;;;;6.90;5.57;;;13.00;99.90;;;;;;4995099;28;20180;-84
2022/05/22 04:38:42;;;;;;;5.80;4.53;;;13.00;99.90;;;;;;4995134;28;20192;-84
2022/05/22 04:41:08;;;;;;;6.77;5.20;;;13.00;99.90;;;;;;4995156;28;20224;-83
2022/05/22 04:43:34;;;;;;;7.90;5.03;;;13.00;99.90;;;;;;4995165;28;20247;-84
2022/05/22 04:46:00;;;;;;;9.73;5.87;;;13.00;99.90;;;;;;4994868;28;20408;-84
2022/05/22 04:48:27;;;;;;;6.57;5.53;;;13.10;99.90;;;;;;4995011;28;20237;-84
2022/05/22 04:50:54;;;;;;;9.00;6.30;;;13.20;99.90;;;;;;4995201;28;20177;-84
2022/05/22 04:53:23;;;;;;;7.00;5.20;;;13.40;99.90;;;;;;4995107;28;20518;-84
2022/05/22 04:55:49;;;;;;;7.17;5.07;;;13.50;99.90;;;;;;4994968;28;20416;-84
2022/05/22 04:58:16;;;;;;;6.93;5.03;;;13.70;99.90;;;;;;4995277;28;20444;-84
2022/05/22 05:00:42;;;;;;;9.17;6.30;;;13.80;99.90;;;;;;4995079;28;20431;-84
2022/05/22 05:03:08;;;;;;;8.10;5.30;;;13.80;99.90;;;;;;5012183;28;20412;-85
2022/05/22 05:05:34;;;;;;;7.60;5.23;;;14.00;99.90;;;;;;5011120;28;20427;-84
2022/05/22 05:08:00;;;;;;;11.90;5.67;;;14.10;99.90;;;;;;5010620;28;20236;-85
2022/05/22 05:10:26;;;;;;;9.83;5.13;;;14.20;99.90;;;;;;5010444;28;20503;-84
2022/05/22 05:12:52;;;;;;;11.70;5.73;;;14.10;99.90;;;;;;5011032;28;20923;-85
2022/05/22 05:15:20;;;;;;;9.67;6.80;;;14.20;99.90;;;;;;5010683;28;20504;-84
2022/05/22 05:17:47;;;;;;;7.60;5.70;;;14.30;99.90;;;;;;5008187;28;20228;-84
2022/05/22 05:20:18;;;;;;;6.33;5.20;;;14.30;99.90;;;;;;5008953;28;20431;-84
2022/05/22 05:22:44;;;;;;;7.80;5.00;;;14.40;99.90;;;;;;5009250;28;20871;-84
2022/05/22 05:25:12;;;;;;;7.53;6.00;;;14.50;99.90;;;;;;5008765;28;20431;-85
2022/05/22 05:27:38;;;;;;;7.60;5.40;;;14.60;99.90;;;;;;5007768;28;20842;-84
2022/05/22 05:30:05;;;;;;;10.43;6.07;;;14.80;99.90;;;;;;5007048;28;20474;-85
2022/05/22 05:32:30;;;;;;;7.03;6.03;;;14.90;99.90;;;;;;5006472;28;20201;-85
2022/05/22 05:34:58;;;;;;;9.30;5.90;;;15.10;99.90;;;;;;5005930;28;20421;-84
2022/05/22 05:37:24;;;;;;;7.10;6.20;;;15.10;99.90;;;;;;5005214;28;20205;-85
2022/05/22 05:39:50;;;;;;;9.00;5.50;;;15.30;99.90;;;;;;5004772;28;20439;-84
2022/05/22 05:42:16;;;;;;;8.30;5.83;;;15.30;99.90;;;;;;5004151;28;20463;-84
2022/05/22 05:44:42;;;;;;;9.77;6.13;;;15.30;99.90;;;;;;5004275;28;20522;-84
2022/05/22 05:47:09;;;;;;;6.03;4.83;;;15.40;99.90;;;;;;5003229;28;20208;-84
2022/05/22 05:49:37;;;;;;;9.87;5.90;;;15.50;99.90;;;;;;5003303;28;20315;-84
2022/05/22 05:52:03;;;;;;;7.00;5.97;;;15.50;99.90;;;;;;5002801;28;20432;-84
2022/05/22 05:54:30;;;;;;;7.57;5.30;;;15.60;99.90;;;;;;5002043;28;20424;-84
2022/05/22 05:56:56;;;;;;;6.07;5.43;;;15.60;99.90;;;;;;5002004;28;20483;-84
2022/05/22 05:59:22;;;;;;;14.27;6.70;;;15.60;99.90;;;;;;5004253;28;20432;-84
2022/05/22 06:01:48;;;;;;;8.33;6.20;;;15.60;99.90;;;;;;5010829;28;20512;-85
2022/05/22 06:04:13;;;;;;;8.33;5.20;;;15.60;99.90;;;;;;5011358;28;20185;-84
2022/05/22 06:06:39;;;;;;;8.17;6.00;;;15.70;99.90;;;;;;5010838;28;20292;-84
2022/05/22 06:09:05;;;;;;;7.67;6.07;;;15.80;99.90;;;;;;5011710;28;20236;-85
2022/05/22 06:11:31;;;;;;;7.57;5.73;;;15.90;99.90;;;;;;5010917;28;20201;-85
2022/05/22 06:13:57;;;;;;;10.87;7.10;;;15.90;99.90;;;;;;5008226;28;20462;-84
2022/05/22 06:16:23;;;;;;;8.53;5.80;;;15.90;99.90;;;;;;5008330;28;20177;-85
2022/05/22 06:18:49;;;;;;;8.03;5.40;;;16.10;99.90;;;;;;5007293;28;20181;-84
2022/05/22 06:21:21;;;;;;;10.00;5.10;;;16.20;99.90;;;;;;5006329;28;20431;-85
2022/05/22 06:23:48;;;;;;;7.00;5.37;;;16.40;99.90;;;;;;5005555;28;20173;-84
2022/05/22 06:26:17;;;;;;;9.47;5.97;;;16.40;99.90;;;;;;5004089;28;20427;-84
2022/05/22 06:28:43;;;;;;;6.43;4.73;;;16.30;99.90;;;;;;5003212;28;20467;-84
2022/05/22 06:31:11;;;;;;;6.57;5.63;;;16.50;99.90;;;;;;5004564;28;20487;-84
2022/05/22 06:33:37;;;;;;;7.13;5.10;;;16.60;99.90;;;;;;5004618;28;20460;-84
2022/05/22 06:36:11;;;;;;;6.43;5.17;;;16.70;99.90;;;;;;5003851;28;20423;-84
2022/05/22 06:41:22;;;;;;;6.53;4.93;;;16.90;99.90;;;;;;5018869;28;20462;-82
2022/05/22 06:43:51;;;;;;;8.20;5.10;;;17.10;99.90;;;;;;4999788;28;20923;-82
2022/05/22 06:46:30;;;;;;;6.30;5.10;;;17.20;99.90;;;;;;4998496;28;20428;-83
2022/05/22 06:48:57;;;;;;;9.57;4.97;;;17.40;99.90;;;;;;4998788;28;20901;-82
2022/05/22 06:51:22;;;;;;;8.20;5.63;;;17.60;99.90;;;;;;4999132;28;20408;-81
2022/05/22 06:53:48;;;;;;;7.67;5.20;;;17.50;99.90;;;;;;4998435;28;20427;-82
2022/05/22 06:56:14;;;;;;;7.63;5.40;;;17.60;99.90;;;;;;4998275;28;20173;-81
2022/05/22 06:58:40;;;;;;;8.07;5.40;;;17.60;99.90;;;;;;4998278;28;20310;-81
2022/05/22 07:01:05;;;;;;;5.67;5.17;;;17.70;99.90;;;;;;4999973;28;20181;-82
2022/05/22 07:03:34;;;;;;;6.13;4.37;;;17.80;99.90;;;;;;4998701;28;20739;-83
2022/05/22 07:06:00;;;;;;;9.40;5.67;;;17.90;99.90;;;;;;4998906;28;20272;-82
2022/05/22 07:08:27;;;;;;;7.47;4.80;;;18.00;99.90;;;;;;4998887;28;21260;-83
2022/05/22 07:13:37;;;;;;;9.83;5.37;;;18.10;99.90;;;;;;5016044;28;20491;-82
2022/05/22 07:16:05;;;;;;;8.23;5.20;;;18.20;99.90;;;;;;4997995;28;20864;-82
2022/05/22 07:18:31;;;;;;;6.97;5.70;;;18.40;99.90;;;;;;4998488;28;20205;-80
2022/05/22 07:20:57;;;;;;;5.83;4.77;;;18.50;99.90;;;;;;4997907;28;20949;-81
2022/05/22 07:23:24;;;;;;;6.57;4.03;;;18.60;99.90;;;;;;4997493;28;20515;-81
2022/05/22 07:25:51;;;;;;;7.47;5.20;;;18.80;99.90;;;;;;4997706;28;21118;-81
2022/05/22 07:28:17;;;;;;;7.90;5.30;;;18.80;99.90;;;;;;4997378;28;20484;-81
2022/05/22 07:30:43;;;;;;;7.60;5.20;;;18.90;99.90;;;;;;4997600;28;20451;-83
2022/05/22 07:33:09;;;;;;;6.80;4.73;;;19.00;99.90;;;;;;4996890;28;20420;-82
2022/05/22 07:35:35;;;;;;;6.87;5.57;;;19.10;99.90;;;;;;4996775;28;20438;-83
2022/05/22 07:38:01;;;;;;;7.13;4.93;;;19.20;99.90;;;;;;4996932;28;20493;-81
2022/05/22 07:40:29;;;;;;;7.90;4.40;;;19.30;99.90;;;;;;4996196;28;20177;-82
2022/05/22 07:42:54;;;;;;;5.53;4.10;;;19.30;99.90;;;;;;4996858;28;20565;-81
2022/05/22 07:45:20;;;;;;;7.63;5.03;;;19.50;99.90;;;;;;4996426;28;21130;-82
2022/05/22 07:47:46;;;;;;;7.63;4.80;;;19.60;99.90;;;;;;4996337;28;20201;-81
2022/05/22 07:50:18;;;;;;;6.90;5.20;;;19.70;99.90;;;;;;4996636;28;20224;-82
2022/05/22 07:52:53;;;;;;;6.03;4.70;;;19.60;99.90;;;;;;5000507;28;20232;-82
2022/05/22 07:55:20;;;;;;;6.67;5.77;;;19.70;99.90;;;;;;5001820;28;20416;-82
2022/05/22 07:57:48;;;;;;;5.90;4.47;;;19.60;99.90;;;;;;5000793;28;20443;-81
2022/05/22 08:00:17;;;;;;;7.70;4.77;;;20.10;99.90;;;;;;5000075;28;20424;-83
2022/05/22 08:02:43;;;;;;;6.80;5.10;;;21.10;99.90;;;;;;5000093;28;20420;-83
2022/05/22 08:05:11;;;;;;;8.30;5.50;;;21.80;99.90;;;;;;4999729;28;20423;-82
2022/05/22 08:07:37;;;;;;;7.00;5.30;;;22.50;99.90;;;;;;4999488;28;20443;-82
2022/05/22 08:10:04;;;;;;;7.13;5.57;;;23.50;99.90;;;;;;4999872;28;20459;-84
2022/05/22 08:12:39;;;;;;;6.30;5.30;;;24.30;99.90;;;;;;4999850;28;20184;-83
2022/05/22 08:15:06;;;;;;;8.50;4.90;;;24.80;99.90;;;;;;4999747;28;20435;-84
2022/05/22 08:17:36;;;;;;;10.23;5.60;;;25.40;99.90;;;;;;4998722;28;20451;-83
2022/05/22 08:20:04;;;;;;;7.13;4.60;;;26.10;99.90;;;;;;5001704;28;20432;-85
2022/05/22 08:22:30;;;;;;;7.63;5.60;;;26.70;99.90;;;;;;5001710;28;20911;-83
2022/05/22 08:24:56;;;;;;;6.73;5.20;;;26.80;99.90;;;;;;5000273;28;20440;-85
2022/05/22 08:27:22;;;;;;;6.83;4.90;;;26.90;99.90;;;;;;4998490;28;21008;-83
2022/05/22 08:29:47;;;;;;;8.10;5.23;;;27.10;99.90;;;;;;4998523;28;20240;-85
2022/05/22 08:32:13;;;;;;;9.00;5.73;;;27.20;99.90;;;;;;4998026;28;20536;-84
2022/05/22 08:34:39;;;;;;;6.90;5.43;;;27.30;99.90;;;;;;4999229;28;20189;-84
2022/05/22 08:37:05;;;;;;;6.37;5.20;;;27.50;99.90;;;;;;4998258;28;20256;-84
2022/05/22 08:39:32;;;;;;;7.93;5.30;;;27.60;99.90;;;;;;4998870;28;20230;-81
2022/05/22 08:41:59;;;;;;;7.60;5.00;;;27.90;99.30;;;;;;5006857;28;20204;-85
2022/05/22 08:44:32;;;;;;;7.60;4.80;;;28.40;97.60;;;;;;5008790;28;20450;-85
2022/05/22 08:47:06;;;;;;;7.23;5.20;;;30.10;92.60;;;;;;5008245;28;20471;-84
2022/05/22 08:49:57;;;;;;;6.80;3.90;;;30.30;92.90;;;;;;5005268;28;20467;-85
2022/05/22 08:52:51;;;;;;;7.30;4.97;;;31.20;88.40;;;;;;4995602;28;20451;-84
2022/05/22 08:55:21;;;;;;;5.73;4.50;;;32.00;78.10;;;;;;4996062;28;20424;-84
2022/05/22 09:00:41;;;;;;;4.90;4.00;;;32.80;67.60;;;;;;5019470;28;20519;-85
2022/05/22 09:03:29;;;;;;;5.43;3.60;;;32.80;65.10;;;;;;5001406;28;20444;-86
2022/05/22 09:05:59;;;;;;;5.83;4.07;;;33.40;62.00;;;;;;5000208;28;20802;-85
2022/05/22 09:08:45;;;;;;;6.77;4.37;;;33.90;59.10;;;;;;4995665;28;20522;-84
2022/05/22 09:11:48;;;;;;;6.97;4.27;;;34.40;57.00;;;;;;4996075;28;21090;-84
2022/05/22 09:14:29;;;;;;;5.93;4.10;;;35.00;55.30;;;;;;4995912;28;20426;-85
2022/05/22 09:17:17;;;;;;;6.63;3.60;;;35.40;52.50;;;;;;4997943;28;20454;-81
2022/05/22 09:20:04;;;;;;;4.57;3.57;;;35.80;51.40;;;;;;5001836;28;21016;-78
2022/05/22 09:22:50;;;;;;;6.10;3.60;;;36.20;49.50;;;;;;4996241;28;20859;-79
2022/05/22 09:25:28;;;;;;;5.13;4.13;;;36.40;47.80;;;;;;4994793;28;20511;-79
2022/05/22 09:28:06;;;;;;;5.57;3.97;;;36.60;47.20;;;;;;4994599;28;20824;-79
2022/05/22 09:30:41;;;;;;;5.80;3.50;;;37.10;45.60;;;;;;4994599;28;20902;-79
2022/05/22 09:33:33;;;;;;;4.93;3.87;;;37.70;45.20;;;;;;4995562;28;20419;-77
2022/05/22 09:36:35;;;;;;;6.73;4.13;;;37.90;45.80;;;;;;4998848;28;20482;-81
2022/05/22 09:39:26;;;;;;;4.87;3.30;;;36.50;40.90;;;;;;4994701;28;20459;-82
2022/05/22 09:42:05;;;;;;;7.00;3.40;;;33.90;42.50;;;;;;5001624;28;20484;-80
2022/05/22 09:44:42;;;;;;;7.00;4.13;;;31.50;44.10;;;;;;5025896;23;20542;-82
2022/05/22 09:47:27;;;;;;;4.30;2.40;;;29.70;46.00;;;;;;4990082;28;21092;-81
2022/05/22 09:50:32;;;;;;;4.00;2.67;;;28.20;48.00;;;;;;4991792;28;20753;-83
2022/05/22 09:53:04;;;;;;;6.13;3.70;;;27.00;50.50;;;;;;4991733;28;20447;-82
2022/05/22 09:55:33;;;;;;;5.20;3.77;;;26.60;54.20;;;;;;4989266;28;20433;-83
2022/05/22 09:58:10;;;;;;;4.83;3.60;;;25.90;54.80;;;;;;4990601;28;20954;-81
2022/05/22 10:00:47;;;;;;;7.07;3.40;;;25.40;58.70;;;;;;4977326;28;20461;-82
2022/05/22 10:03:19;;;;;;;6.17;3.20;;;24.90;62.30;;;;;;4990064;28;20405;-83
2022/05/22 10:06:08;;;;;;;6.20;3.33;;;24.80;66.30;;;;;;4994184;28;20440;-83
2022/05/22 10:08:58;;;;;;;5.07;2.80;;;25.80;73.00;;;;;;4978249;28;20507;-83
2022/05/22 10:11:50;;;;;;;4.87;2.83;;;28.30;58.20;;;;;;4995796;28;20401;-83
2022/05/22 10:14:33;;;;;;;5.20;4.10;;;28.70;57.20;;;;;;4988600;28;20423;-83
2022/05/22 10:17:13;;;;;;;4.83;2.80;;;29.10;56.20;;;;;;4995281;28;20856;-83
2022/05/22 10:20:12;;;;;;;5.00;3.00;;;29.20;52.40;;;;;;4995563;28;20829;-83
2022/05/22 10:22:55;;;;;;;4.43;2.67;;;28.60;54.60;;;;;;4994437;28;20425;-83
2022/05/22 10:25:27;;;;;;;5.30;3.50;;;28.50;56.50;;;;;;4993752;28;20827;-83
2022/05/22 10:28:28;;;;;;;4.43;3.00;;;28.00;53.00;;;;;;4995289;28;20455;-83
2022/05/22 10:31:32;;;;;;;6.80;3.70;;;27.50;55.80;;;;;;4965257;28;20842;-83
2022/05/22 10:34:09;;;;;;;4.20;3.40;;;27.10;56.90;;;;;;4995214;28;20845;-82
2022/05/22 10:36:41;;;;;;;4.30;3.43;;;26.70;57.70;;;;;;4977541;28;20841;-83
2022/05/22 10:39:12;;;;;;;5.87;3.60;;;26.30;57.90;;;;;;4995203;28;20514;-82
2022/05/22 10:44:37;;;;;;;5.10;3.40;;;25.00;64.50;;;;;;4995227;28;20535;-82
2022/05/22 10:47:03;;;;;;;5.27;3.30;;;24.70;62.70;;;;;;4977483;28;20476;-83
2022/05/22 10:49:44;;;;;;;5.33;3.57;;;24.70;69.10;;;;;;4993641;28;20427;-82
2022/05/22 10:52:13;;;;;;;6.53;3.53;;;24.40;72.30;;;;;;4995154;28;20452;-83
2022/05/22 10:54:50;;;;;;;4.83;3.27;;;24.40;71.10;;;;;;4994815;28;20437;-82
2022/05/22 10:57:21;;;;;;;5.20;3.20;;;24.50;74.70;;;;;;4977204;28;20514;-83
2022/05/22 10:59:47;;;;;;;4.30;3.03;;;24.40;72.60;;;;;;4994809;28;20456;-83
2022/05/22 11:02:29;;;;;;;4.63;3.17;;;24.40;70.90;;;;;;4993662;28;20448;-83
2022/05/22 11:04:57;;;;;;;4.30;2.87;;;24.70;74.80;;;;;;4994621;28;20932;-83
2022/05/22 11:07:41;;;;;;;4.40;3.43;;;24.80;78.20;;;;;;4994668;28;20941;-83
2022/05/22 11:10:25;;;;;;;4.53;3.30;;;25.00;78.10;;;;;;4994594;28;20812;-82
2022/05/22 11:13:09;;;;;;;4.30;3.50;;;25.20;70.10;;;;;;4977482;28;20432;-83
2022/05/22 11:15:42;;;;;;;4.60;2.40;;;24.90;63.20;;;;;;4975526;28;20444;-82
2022/05/22 11:18:09;;;;;;;3.80;3.00;;;24.50;69.80;;;;;;4977009;28;20432;-82
2022/05/22 11:20:40;;;;;;;4.63;2.73;;;24.30;75.50;;;;;;4977316;28;20433;-83
2022/05/22 11:23:23;;;;;;;8.13;4.50;;;24.30;69.90;;;;;;4994886;28;20460;-83
2022/05/22 11:26:07;;;;;;;6.80;3.63;;;24.00;71.40;;;;;;4992714;28;20821;-82
2022/05/22 11:28:46;;;;;;;5.37;3.70;;;24.00;72.10;;;;;;4994627;28;20498;-83
2022/05/22 11:31:37;;;;;;;4.80;3.80;;;23.90;74.50;;;;;;4994427;28;20789;-82
2022/05/22 11:34:32;;;;;;;4.63;3.20;;;24.00;76.80;;;;;;4994621;28;20424;-82
2022/05/22 11:37:28;;;;;;;5.03;3.60;;;24.00;82.60;;;;;;4994112;28;20444;-83
2022/05/22 11:40:27;;;;;;;4.57;3.60;;;24.10;80.10;;;;;;4994428;28;20547;-82
2022/05/22 11:43:15;;;;;;;7.67;3.93;;;24.20;84.10;;;;;;4994624;28;20424;-83
2022/05/22 11:46:05;;;;;;;5.67;3.73;;;24.30;82.90;;;;;;4993689;28;20792;-83
2022/05/22 11:49:01;;;;;;;5.27;3.40;;;24.80;87.50;;;;;;4976756;28;20429;-83
2022/05/22 11:51:49;;;;;;;4.57;3.20;;;25.30;87.80;;;;;;4975949;28;20437;-83
2022/05/22 11:54:38;;;;;;;5.03;4.00;;;25.60;83.00;;;;;;4976668;28;20424;-83
2022/05/22 11:57:39;;;;;;;5.50;4.07;;;25.40;80.50;;;;;;4993634;28;20405;-82
2022/05/22 12:00:14;;;;;;;5.33;3.10;;;25.20;82.10;;;;;;4933774;29;20514;-83
2022/05/22 12:03:06;;;;;;;5.63;3.30;;;25.30;82.60;;;;;;4984917;28;20432;-82
2022/05/22 12:05:53;;;;;;;4.80;3.00;;;25.30;74.00;;;;;;4976239;28;20461;-82
2022/05/22 12:08:56;;;;;;;4.73;2.77;;;25.20;75.90;;;;;;4992487;28;20479;-83
2022/05/22 12:11:51;;;;;;;3.97;2.30;;;25.10;65.40;;;;;;4977781;28;20424;-83
2022/05/22 12:14:26;;;;;;;4.53;2.90;;;25.00;68.10;;;;;;4976682;28;20421;-82
2022/05/22 12:17:04;;;;;;;3.10;2.20;;;25.00;65.10;;;;;;4994239;28;20428;-83
2022/05/22 12:19:53;;;;;;;4.13;2.47;;;25.00;67.30;;;;;;4977160;28;20495;-83
2022/05/22 12:22:22;;;;;;;4.30;2.33;;;25.00;69.40;;;;;;4995252;28;20417;-83
2022/05/22 12:25:01;;;;;;;4.57;2.60;;;25.10;62.60;;;;;;4976794;28;20441;-82
2022/05/22 12:27:33;;;;;;;6.17;2.50;;;25.30;66.40;;;;;;4976833;28;20442;-83
2022/05/22 12:30:02;;;;;;;4.60;2.00;;;25.30;62.80;;;;;;4995021;28;20487;-83
2022/05/22 12:32:29;;;;;;;3.50;2.07;;;25.40;62.20;;;;;;4996480;28;20786;-82
2022/05/22 12:34:58;;;;;;;6.30;2.70;;;25.60;62.20;;;;;;5008532;28;20479;-82
2022/05/22 12:37:40;;;;;;;3.47;2.40;;;25.50;58.40;;;;;;4994557;28;20467;-82
2022/05/22 12:40:27;;;;;;;3.80;2.40;;;25.30;61.20;;;;;;4995192;28;20513;-84
2022/05/22 12:42:58;;;;;;;3.80;2.70;;;25.50;65.10;;;;;;5012542;28;20407;-82
2022/05/22 12:45:25;;;;;;;4.47;2.80;;;25.60;65.10;;;;;;4994876;28;20464;-83
2022/05/22 12:47:52;;;;;;;4.40;2.93;;;25.80;67.80;;;;;;4994505;28;20435;-83
2022/05/22 12:50:33;;;;;;;4.93;3.00;;;25.70;65.70;;;;;;4994784;28;20424;-83
2022/05/22 12:52:59;;;;;;;4.53;2.60;;;25.80;62.70;;;;;;5012252;28;20801;-82
2022/05/22 12:55:35;;;;;;;4.27;2.90;;;26.00;62.70;;;;;;5012323;28;20448;-83
2022/05/22 12:58:04;;;;;;;3.80;2.60;;;25.80;64.10;;;;;;4994482;28;20187;-83
2022/05/22 13:00:36;;;;;;;4.70;3.50;;;25.90;62.60;;;;;;4994597;28;20486;-82
2022/05/22 13:03:22;;;;;;;3.77;2.30;;;25.60;60.20;;;;;;5012114;28;20823;-83
2022/05/22 13:06:18;;;;;;;4.03;2.50;;;25.50;61.00;;;;;;4993609;28;20448;-83
2022/05/22 13:08:49;;;;;;;3.90;2.70;;;25.50;62.80;;;;;;4994007;28;20419;-83
2022/05/22 13:11:23;;;;;;;3.93;2.43;;;25.70;62.20;;;;;;4994671;28;20471;-83
2022/05/22 13:13:53;;;;;;;4.10;2.87;;;25.80;64.30;;;;;;5010509;28;20428;-84
2022/05/22 13:16:30;;;;;;;4.10;2.90;;;26.00;65.00;;;;;;4991725;28;20483;-84
2022/05/22 13:18:56;;;;;;;4.40;2.93;;;26.20;67.20;;;;;;5003157;28;20963;-83
2022/05/22 13:21:34;;;;;;;6.93;2.50;;;26.20;59.50;;;;;;4992653;28;20471;-82
2022/05/22 13:24:06;;;;;;;3.53;2.33;;;26.50;60.80;;;;;;4975507;28;20256;-84
2022/05/22 13:26:33;;;;;;;3.90;2.47;;;26.90;61.50;;;;;;4991926;28;20862;-83
2022/05/22 13:29:15;;;;;;;4.00;2.53;;;27.20;59.80;;;;;;4976405;28;20433;-82
2022/05/22 13:31:50;;;;;;;4.90;2.27;;;27.50;59.50;;;;;;4993630;28;20405;-84